• Join FlightAware (Why Join?)
  • Login
  • US Flag 
11:38AM EST


 

Airport Tracker/Info


-or-


 

Live Flight TrackerFlight Track Log ✈ UCA3596 ✈ 15-Oct-2013 ✈ KBGM - KIAD

Flight Track Log - Related Links

Times and Time Zones

All times are in EDT time to prevent confusion due to time zone crossing. See the UCA3596 flight status page for this flight to view local times or setup timezone preferences in your user account.

Time Position Orientation Groundspeed Altitude Reporting Facility
EDT Latitude Longitude Course Direction KTS MPH feet Rate Location/Type
02:46PM 42.1386 -76.0144 232° Southwest 168 193 4,500  Level New York Center
02:47PM 42.1039 -76.0481 216° Southwest 168 193 6,200 1,550 Climbing New York Center
02:48PM 42.0669 -76.0842 216° Southwest 168 193 7,600 1,450 Climbing New York Center
02:49PM 42.0211 -76.1308 217° Southwest 180 207 9,100 1,450 Climbing New York Center
02:50PM 41.8565 -76.1470 212° Southwest  Level Estimated
02:50PM 41.9797 -76.1694 215° Southwest 180 207 10,500  Level New York Center
02:51PM 41.8178 -76.2124 232° Southwest  Level FlightAware Approximate
02:51PM 41.9450 -76.2028 216° Southwest 180 207 11,800  Level New York Center
02:52PM 41.8992 -76.2464 215° Southwest 180 207 13,200 1,250 Climbing New York Center
02:53PM 41.8556 -76.2872 215° Southwest 187 215 14,300 1,050 Climbing New York Center
02:54PM 41.8142 -76.3256 215° Southwest 187 215 15,300 850 Climbing New York Center
02:55PM 41.7750 -76.3642 216° Southwest 193 222 16,000 350 Climbing New York Center
02:56PM 41.7228 -76.4125 215° Southwest 211 243 16,000  Level New York Center
02:57PM 41.6639 -76.4686 215° Southwest 240 276 16,000  Level New York Center
02:58PM 41.6092 -76.5222 216° Southwest 245 282 16,000  Level New York Center
02:59PM 41.5525 -76.5756 215° Southwest 250 288 16,000  Level New York Center
03:00PM 41.5003 -76.6208 213° Southwest 250 288 16,000  Level New York Center
03:01PM 41.4389 -76.6792 215° Southwest 255 293 16,000  Level New York Center
03:02PM 41.3842 -76.7353 218° Southwest 255 293 16,000  Level New York Center
03:03PM 41.3256 -76.7825 211° Southwest 255 293 16,000  Level New York Center
03:04PM 41.2561 -76.7958 188° South 249 287 16,000  Level New York Center
03:05PM 41.1867 -76.8089 188° South 249 287 16,000  Level New York Center
03:06PM 41.1172 -76.8219 188° South 254 292 16,000  Level New York Center
03:07PM 41.0478 -76.8350 188° South 254 292 16,000  Level New York Center
03:08PM 40.9783 -76.8481 188° South 254 292 16,000  Level New York Center
03:09PM 40.9089 -76.8611 188° South 259 298 16,000  Level New York Center
03:10PM 40.8414 -76.8769 190° South 259 298 16,000  Level New York Center
03:11PM 40.7697 -76.8897 188° South 259 298 16,000  Level New York Center
03:12PM 40.7019 -76.9139 195° South 259 298 16,000  Level New York Center
03:13PM 40.6383 -76.9328 193° South 264 304 16,000  Level New York Center
03:14PM 40.5622 -76.9561 193° South 264 304 16,000  Level New York Center
03:15PM 40.5008 -76.9753 193° South 264 304 16,000 -150 Level New York Center
03:16PM 40.4244 -76.9983 193° South 264 304 15,700 -650 Descending New York Center
03:17PM 40.3564 -77.0222 195° South 269 310 14,700 -928 Descending New York Center
03:20PM 40.1667 -77.0833 194° South 268 308 12,500 -899 Descending Potomac TRACON
03:21PM 40.1000 -77.1000 191° South 253 291 11,600 -900 Descending Potomac TRACON
03:22PM 40.0333 -77.1167 191° South 254 292 10,700 -893 Descending Potomac TRACON
03:23PM 39.9667 -77.1333 191° South 254 292 9,800 -843 Descending Potomac TRACON
03:24PM 39.8833 -77.1667 197° South 267 307 9,000 -400 Descending Potomac TRACON
03:25PM 39.8167 -77.1833 191° South 257 296 9,000 -248 Level Potomac TRACON
03:26PM 39.7500 -77.1833 180° South 263 303 8,500 -545 Descending Potomac TRACON
03:27PM 39.6833 -77.2333 210° Southwest 267 307 7,900 -650 Descending Potomac TRACON
03:28PM 39.6333 -77.3167 232° Southwest 267 307 7,200 -450 Descending Potomac TRACON
03:29PM 39.5667 -77.3500 201° Southwest 259 298 7,000 -100 Descending Potomac TRACON
03:30PM 39.5000 -77.3500 180° South 252 290 7,000 -350 Level Potomac TRACON
03:31PM 39.4333 -77.3667 191° South 262 302 6,300 -700 Descending Potomac TRACON
03:32PM 39.3500 -77.3667 180° South 260 299 5,600 -595 Descending Potomac TRACON
03:33PM 39.2833 -77.3667 180° South 252 290 5,100 -595 Descending Potomac TRACON
03:34PM 39.2167 -77.3500 169° South 256 295 4,400 -550 Descending Potomac TRACON
03:35PM 39.1500 -77.3500 180° South 251 289 4,000 -198 Descending Potomac TRACON
03:36PM 39.0833 -77.3500 180° South 241 277 4,000  Level Potomac TRACON
03:37PM 39.0167 -77.3500 180° South 236 272 4,000  Level Potomac TRACON
03:38PM 38.9500 -77.3500 180° South 237 273 4,000  Level Potomac TRACON
03:39PM 38.8833 -77.3500 180° South 226 260 4,000  Level Potomac TRACON
03:40PM 38.8167 -77.3667 191° South 225 259 4,000 -99 Level Potomac TRACON
03:41PM 38.7500 -77.3667 180° South 227 261 3,800 -600 Descending Potomac TRACON
03:42PM 38.7167 -77.4000 218° Southwest 210 242 2,800 -645 Descending Potomac TRACON
03:43PM 38.7500 -77.4333 322° Northwest 181 208 2,500 -149 Descending Potomac TRACON
03:44PM 38.8000 -77.4333 360° North 162 186 2,500 -250 Level Potomac TRACON
03:45PM 38.8500 -77.4333 360° North 166 191 2,000 -700 Descending Potomac TRACON
03:46PM 38.8833 -77.4333 360° North 126 145 1,100 -900 Descending Potomac TRACON
03:48PM 38.9333 -77.4500 349° North  Level FlightAware Approximate
03:55PM 38.9474 -77.4599 349° North  Level Estimated